createdAt,value
2023-01-29T00:01:08.762Z,60.33
2023-01-29T00:04:15.632Z,59.03
2023-01-29T00:07:21.019Z,60.17
2023-01-29T00:10:26.887Z,62.95
2023-01-29T00:13:34.760Z,65.18
2023-01-29T00:16:39.966Z,63.23
2023-01-29T00:19:45.437Z,61.90
2023-01-29T00:22:50.693Z,57.06
2023-01-29T00:25:55.881Z,56.87
2023-01-29T00:29:02.689Z,60.20
2023-01-29T00:32:08.188Z,63.48
2023-01-29T00:35:15.536Z,62.48
2023-01-29T00:38:20.747Z,61.55
2023-01-29T00:41:45.261Z,59.03
2023-01-29T00:44:59.842Z,56.64
2023-01-29T00:48:05.613Z,61.02
2023-01-29T00:51:10.936Z,63.36
2023-01-29T00:54:16.320Z,64.03
2023-01-29T00:57:21.580Z,62.10
2023-01-29T01:00:26.884Z,58.13
2023-01-29T01:03:36.858Z,56.41
2023-01-29T01:06:42.939Z,61.39
2023-01-29T01:10:05.806Z,64.58
2023-01-29T01:13:11.133Z,63.47
2023-01-29T01:16:18.619Z,60.86
2023-01-29T01:19:23.987Z,59.92
2023-01-29T01:22:29.813Z,54.90
2023-01-29T01:25:35.155Z,55.59
2023-01-29T01:28:40.475Z,57.70
2023-01-29T01:31:45.965Z,63.27
2023-01-29T01:34:52.916Z,65.67
2023-01-29T01:37:58.232Z,63.73
2023-01-29T01:41:03.644Z,61.49
2023-01-29T01:44:09.059Z,59.20
2023-01-29T01:47:15.657Z,55.10
2023-01-29T01:50:28.319Z,57.60
2023-01-29T01:53:37.503Z,61.10
2023-01-29T01:56:45.564Z,64.14
2023-01-29T01:59:52.444Z,62.77
2023-01-29T02:03:15.421Z,60.80
2023-01-29T02:06:38.211Z,58.03
2023-01-29T02:09:46.457Z,58.26
2023-01-29T02:12:52.420Z,60.64
2023-01-29T02:15:57.746Z,64.72
2023-01-29T02:19:03.645Z,65.81
2023-01-29T02:22:18.219Z,65.25
2023-01-29T02:25:36.244Z,63.03
2023-01-29T02:28:45.412Z,59.81
2023-01-29T02:31:54.045Z,57.31
2023-01-29T02:35:24.841Z,61.37
2023-01-29T02:38:34.623Z,64.29
2023-01-29T02:41:43.807Z,61.67
2023-01-29T02:44:56.788Z,61.04
2023-01-29T02:48:03.400Z,57.96
2023-01-29T02:51:11.791Z,56.46
2023-01-29T02:54:20.141Z,63.12
2023-01-29T02:57:29.299Z,63.25
2023-01-29T03:00:37.711Z,60.31
2023-01-29T03:03:45.677Z,58.11
2023-01-29T03:06:54.548Z,59.51
2023-01-29T03:10:00.684Z,64.75
2023-01-29T03:13:09.669Z,64.19
2023-01-29T03:16:19.625Z,62.32
2023-01-29T03:19:31.913Z,59.31
2023-01-29T03:22:40.606Z,57.57
2023-01-29T03:26:03.404Z,60.81
2023-01-29T03:29:28.409Z,64.49
2023-01-29T03:32:36.149Z,62.31
2023-01-29T03:35:44.215Z,60.00
2023-01-29T03:38:49.819Z,59.34
2023-01-29T03:41:57.477Z,62.06
2023-01-29T03:45:08.632Z,63.89
2023-01-29T03:48:23.831Z,61.97
2023-01-29T03:51:31.235Z,59.41
2023-01-29T03:54:40.883Z,59.11
2023-01-29T03:57:53.478Z,62.62
2023-01-29T04:01:02.267Z,65.29
2023-01-29T04:04:13.518Z,63.02
2023-01-29T04:07:23.809Z,61.37
2023-01-29T04:10:37.416Z,59.93
2023-01-29T04:13:44.785Z,58.56
2023-01-29T04:16:53.817Z,60.10
2023-01-29T04:20:10.533Z,64.11
2023-01-29T04:23:22.747Z,64.42
2023-01-29T04:26:34.137Z,62.05
2023-01-29T04:29:47.784Z,60.57
2023-01-29T04:32:58.673Z,59.83
2023-01-29T04:36:11.030Z,59.01
2023-01-29T04:39:18.868Z,61.23
2023-01-29T04:42:28.652Z,65.08
2023-01-29T04:45:40.247Z,63.99
2023-01-29T04:48:52.779Z,60.80
2023-01-29T04:52:02.501Z,58.63
2023-01-29T04:55:10.909Z,59.02
2023-01-29T04:58:21.142Z,63.37
2023-01-29T05:01:29.748Z,63.01
2023-01-29T05:04:35.665Z,60.30
2023-01-29T05:07:42.797Z,58.27
2023-01-29T05:10:49.346Z,60.25
2023-01-29T05:13:55.116Z,62.65
2023-01-29T05:17:03.379Z,65.32
2023-01-29T05:20:09.954Z,63.22
2023-01-29T05:23:18.311Z,60.67
2023-01-29T05:26:41.100Z,58.19
2023-01-29T05:29:47.203Z,59.40
2023-01-29T05:32:52.573Z,63.27
2023-01-29T05:35:59.422Z,64.19
2023-01-29T05:39:04.823Z,61.46
2023-01-29T05:42:10.346Z,59.96
2023-01-29T05:45:15.706Z,59.10
2023-01-29T05:48:21.282Z,61.04
2023-01-29T05:51:26.553Z,64.99
2023-01-29T05:54:31.907Z,64.67
2023-01-29T05:57:37.335Z,63.21
2023-01-29T06:00:42.671Z,61.79
2023-01-29T06:03:48.290Z,62.50
2023-01-29T06:06:53.680Z,60.62
2023-01-29T06:09:58.869Z,61.38
2023-01-29T06:13:04.202Z,60.24
2023-01-29T06:16:10.904Z,60.29
2023-01-29T06:19:18.157Z,58.33
2023-01-29T06:22:23.538Z,57.49
2023-01-29T06:25:29.182Z,64.86
2023-01-29T06:28:34.319Z,66.45
2023-01-29T06:31:40.574Z,65.10
2023-01-29T06:34:48.644Z,63.36
2023-01-29T06:37:55.071Z,62.19
2023-01-29T06:41:00.694Z,61.85
2023-01-29T06:44:06.108Z,60.80
2023-01-29T06:47:11.409Z,60.51
2023-01-29T06:50:17.275Z,60.92
2023-01-29T06:53:22.769Z,59.60
2023-01-29T06:56:28.382Z,62.21
2023-01-29T06:59:33.813Z,64.60
2023-01-29T07:02:39.046Z,63.83
2023-01-29T07:05:44.669Z,62.75
2023-01-29T07:08:49.916Z,61.13
2023-01-29T07:11:55.141Z,61.16
2023-01-29T07:15:00.497Z,60.75
2023-01-29T07:18:12.157Z,60.22
2023-01-29T07:21:17.903Z,59.50
2023-01-29T07:24:23.037Z,56.61
2023-01-29T07:27:28.608Z,59.20
2023-01-29T07:30:34.181Z,65.11
2023-01-29T07:33:39.501Z,66.14
2023-01-29T07:36:44.974Z,64.27
2023-01-29T07:39:50.299Z,62.20
2023-01-29T07:43:00.511Z,62.29
2023-01-29T07:46:06.163Z,60.99
2023-01-29T07:49:11.642Z,59.50
2023-01-29T07:52:16.948Z,57.91
2023-01-29T07:55:22.377Z,63.80
2023-01-29T07:58:27.621Z,65.63
2023-01-29T08:01:32.810Z,64.00
2023-01-29T08:04:38.041Z,62.20
2023-01-29T08:07:44.826Z,61.69
2023-01-29T08:10:52.733Z,60.94
2023-01-29T08:13:58.169Z,61.30
2023-01-29T08:17:03.533Z,60.84
2023-01-29T08:20:10.320Z,61.77
2023-01-29T08:23:16.430Z,61.57
2023-01-29T08:26:22.008Z,60.88
2023-01-29T08:29:27.366Z,60.53
2023-01-29T08:32:32.896Z,60.28
2023-01-29T08:35:38.742Z,59.31
2023-01-29T08:38:44.057Z,58.76
2023-01-29T08:41:49.256Z,63.16
2023-01-29T08:44:54.538Z,64.32
2023-01-29T08:47:59.822Z,63.03
2023-01-29T08:51:05.865Z,62.19
2023-01-29T08:54:11.232Z,61.74
2023-01-29T08:57:16.536Z,61.39
2023-01-29T09:00:22.468Z,60.45
2023-01-29T09:03:27.724Z,60.31
2023-01-29T09:06:32.843Z,60.11
2023-01-29T09:09:38.894Z,61.87
2023-01-29T09:12:44.124Z,61.47
2023-01-29T09:15:49.238Z,60.40
2023-01-29T09:18:55.269Z,60.86
2023-01-29T09:22:00.688Z,60.33
2023-01-29T09:25:06.397Z,59.80
2023-01-29T09:28:12.037Z,60.18
2023-01-29T09:31:17.543Z,63.05
2023-01-29T09:34:22.913Z,65.49
2023-01-29T09:37:28.072Z,63.65
2023-01-29T09:40:36.611Z,62.24
2023-01-29T09:43:45.269Z,62.41
2023-01-29T09:46:52.758Z,62.12
2023-01-29T09:50:00.013Z,61.19
2023-01-29T09:53:11.333Z,63.09
2023-01-29T09:56:20.477Z,61.68
2023-01-29T09:59:27.685Z,60.95
2023-01-29T10:02:48.280Z,60.95
2023-01-29T10:06:01.499Z,60.03
2023-01-29T10:09:26.059Z,60.07
2023-01-29T10:12:35.686Z,60.63
2023-01-29T10:15:47.613Z,61.12
2023-01-29T10:18:59.865Z,61.29
2023-01-29T10:22:16.617Z,60.48
2023-01-29T10:25:22.628Z,60.20
2023-01-29T10:28:30.741Z,60.32
2023-01-29T10:31:39.088Z,62.20
2023-01-29T10:34:46.503Z,62.18
2023-01-29T10:37:53.276Z,61.77
2023-01-29T10:41:03.883Z,61.11
2023-01-29T10:44:17.943Z,61.32
2023-01-29T10:47:33.290Z,60.95
2023-01-29T10:50:46.608Z,60.99
2023-01-29T10:54:00.437Z,60.15
2023-01-29T10:57:12.371Z,60.63
2023-01-29T11:00:21.717Z,60.22
2023-01-29T11:03:28.938Z,61.13
2023-01-29T11:06:36.413Z,61.27
2023-01-29T11:09:44.316Z,61.44
2023-01-29T11:12:50.442Z,60.87
2023-01-29T11:15:55.743Z,61.17
2023-01-29T11:19:02.186Z,62.09
2023-01-29T11:22:13.668Z,61.39
2023-01-29T11:25:20.061Z,60.56
2023-01-29T11:28:38.833Z,61.57
2023-01-29T11:31:43.966Z,62.87
2023-01-29T11:34:59.205Z,62.27
2023-01-29T11:38:18.998Z,62.36
2023-01-29T11:41:25.528Z,61.46
2023-01-29T11:44:32.240Z,61.81
2023-01-29T11:47:37.626Z,60.24
2023-01-29T11:50:43.454Z,59.85
2023-01-29T11:53:52.366Z,59.13
2023-01-29T11:56:58.218Z,59.95
2023-01-29T12:00:06.505Z,63.84
2023-01-29T12:03:16.660Z,62.92
2023-01-29T12:06:24.068Z,62.12
2023-01-29T12:09:30.642Z,62.24
2023-01-29T12:12:39.303Z,61.57
2023-01-29T12:15:44.600Z,61.22
2023-01-29T12:18:54.281Z,62.89
2023-01-29T12:22:03.090Z,62.10
2023-01-29T12:25:18.307Z,62.26
2023-01-29T12:28:32.750Z,62.32
2023-01-29T12:31:45.095Z,61.71
2023-01-29T12:34:52.473Z,61.56
2023-01-29T12:38:00.967Z,61.03
2023-01-29T12:41:09.363Z,61.02
2023-01-29T12:44:17.173Z,62.42
2023-01-29T12:47:26.395Z,61.50
2023-01-29T12:50:34.617Z,61.46
2023-01-29T12:53:42.782Z,61.43
2023-01-29T12:56:49.906Z,61.92
2023-01-29T12:59:59.288Z,61.11
2023-01-29T13:03:08.939Z,60.96
2023-01-29T13:06:16.963Z,62.76
2023-01-29T13:09:23.386Z,62.39
2023-01-29T13:12:29.599Z,61.09
2023-01-29T13:15:37.458Z,60.95
2023-01-29T13:18:45.630Z,61.84
2023-01-29T13:21:52.509Z,61.00
2023-01-29T13:25:05.187Z,60.49
2023-01-29T13:28:18.124Z,60.89
2023-01-29T13:31:28.605Z,60.35
2023-01-29T13:34:35.731Z,61.24
2023-01-29T13:37:43.347Z,62.44
2023-01-29T13:40:51.140Z,61.53
2023-01-29T13:43:56.854Z,60.68
2023-01-29T13:47:05.223Z,61.10
2023-01-29T13:50:14.537Z,60.47
2023-01-29T13:53:23.557Z,60.53
2023-01-29T13:56:44.134Z,60.62
2023-01-29T13:59:53.242Z,59.69
2023-01-29T14:03:12.328Z,59.32
2023-01-29T14:06:31.088Z,63.35
2023-01-29T14:09:49.845Z,63.24
2023-01-29T14:12:55.719Z,62.44
2023-01-29T14:16:18.513Z,61.78
2023-01-29T14:19:25.724Z,61.11
2023-01-29T14:22:33.796Z,60.64
2023-01-29T14:25:40.719Z,60.57
2023-01-29T14:28:53.470Z,62.66
2023-01-29T14:32:01.346Z,61.52
2023-01-29T14:35:18.885Z,62.53
2023-01-29T14:38:26.482Z,62.53
2023-01-29T14:41:33.626Z,62.03
2023-01-29T14:44:58.513Z,61.40
2023-01-29T14:48:05.802Z,62.73
2023-01-29T14:51:11.976Z,62.77
2023-01-29T14:54:23.805Z,62.90
2023-01-29T14:57:30.651Z,63.32
2023-01-29T15:00:38.223Z,63.93
2023-01-29T15:03:45.542Z,64.58
2023-01-29T15:06:54.027Z,63.99
2023-01-29T15:10:21.367Z,64.05
2023-01-29T15:13:32.133Z,65.13
2023-01-29T15:16:42.169Z,65.95
2023-01-29T15:19:49.075Z,64.96
2023-01-29T15:22:54.398Z,65.61
2023-01-29T15:26:03.305Z,65.32
2023-01-29T15:29:22.175Z,65.58
2023-01-29T15:32:29.531Z,65.18
2023-01-29T15:35:37.146Z,65.20
2023-01-29T15:38:42.704Z,64.57
2023-01-29T15:41:48.329Z,64.49
2023-01-29T15:44:55.461Z,63.70
2023-01-29T15:48:03.988Z,63.56
2023-01-29T15:51:12.004Z,63.90
2023-01-29T15:54:18.048Z,64.74
2023-01-29T15:57:25.222Z,65.57
2023-01-29T16:00:31.561Z,63.93
2023-01-29T16:03:37.694Z,63.76
2023-01-29T16:06:43.619Z,63.81
2023-01-29T16:09:49.393Z,63.84
2023-01-29T16:12:54.943Z,63.27
2023-01-29T16:16:01.852Z,64.49
2023-01-29T16:19:20.986Z,63.65
2023-01-29T16:22:26.979Z,63.58
2023-01-29T16:25:33.210Z,63.53
2023-01-29T16:28:42.450Z,63.51
2023-01-29T16:31:49.159Z,63.63
2023-01-29T16:34:57.284Z,64.49
2023-01-29T16:38:04.310Z,63.62
2023-01-29T16:41:16.229Z,62.52
2023-01-29T16:44:35.638Z,63.12
2023-01-29T16:47:41.611Z,63.33
2023-01-29T16:50:55.141Z,63.50
2023-01-29T16:54:02.173Z,63.28
2023-01-29T16:57:07.743Z,62.78
2023-01-29T17:00:19.290Z,62.87
2023-01-29T17:03:26.650Z,63.05
2023-01-29T17:06:32.787Z,63.63
2023-01-29T17:09:38.971Z,63.70
2023-01-29T17:12:49.596Z,64.84
2023-01-29T17:15:55.119Z,65.15
2023-01-29T17:19:01.102Z,63.57
2023-01-29T17:22:08.498Z,63.35
2023-01-29T17:25:16.244Z,63.34
2023-01-29T17:28:22.005Z,62.59
2023-01-29T17:31:27.808Z,62.10
2023-01-29T17:34:33.053Z,62.68
2023-01-29T17:37:38.317Z,63.09
2023-01-29T17:40:45.672Z,63.55
2023-01-29T17:43:51.016Z,63.30
2023-01-29T17:46:56.355Z,62.97
2023-01-29T17:50:01.882Z,63.06
2023-01-29T17:53:07.379Z,62.16
2023-01-29T17:56:15.532Z,63.44
2023-01-29T17:59:21.554Z,63.73
2023-01-29T18:02:29.160Z,62.49
2023-01-29T18:05:35.239Z,63.57
2023-01-29T18:08:40.859Z,62.80
2023-01-29T18:11:46.105Z,62.20
2023-01-29T18:14:51.402Z,62.46
2023-01-29T18:17:57.371Z,62.94
2023-01-29T18:21:02.724Z,63.60
2023-01-29T18:24:08.546Z,62.99
2023-01-29T18:27:13.957Z,62.47
2023-01-29T18:30:19.451Z,63.06
2023-01-29T18:33:25.867Z,62.75
2023-01-29T18:36:31.269Z,62.58
2023-01-29T18:39:36.672Z,61.59
2023-01-29T18:42:42.013Z,61.79
2023-01-29T18:45:48.731Z,63.87
2023-01-29T18:48:54.156Z,63.03
2023-01-29T18:51:59.503Z,62.89
2023-01-29T18:55:09.752Z,63.19
2023-01-29T18:58:27.338Z,64.15
2023-01-29T19:01:39.322Z,64.78
2023-01-29T19:04:46.964Z,63.76
2023-01-29T19:07:53.397Z,64.01
2023-01-29T19:11:02.390Z,63.17
2023-01-29T19:14:07.793Z,63.25
2023-01-29T19:17:13.229Z,62.94
2023-01-29T19:20:18.804Z,63.64
2023-01-29T19:23:24.239Z,64.03
2023-01-29T19:26:33.872Z,63.37
2023-01-29T19:29:39.362Z,64.01
2023-01-29T19:32:44.654Z,64.29
2023-01-29T19:35:49.856Z,63.63
2023-01-29T19:38:55.359Z,63.56
2023-01-29T19:42:01.282Z,62.79
2023-01-29T19:45:07.609Z,62.67
2023-01-29T19:48:13.749Z,63.14
2023-01-29T19:51:19.057Z,62.42
2023-01-29T19:54:27.424Z,63.73
2023-01-29T19:57:33.049Z,63.97
2023-01-29T20:00:38.361Z,63.88
2023-01-29T20:03:46.453Z,62.82
2023-01-29T20:06:51.853Z,63.22
2023-01-29T20:09:57.252Z,63.21
2023-01-29T20:13:02.654Z,63.43
2023-01-29T20:16:08.805Z,62.83
2023-01-29T20:19:15.256Z,62.72
2023-01-29T20:22:20.700Z,62.99
2023-01-29T20:25:26.214Z,63.46
2023-01-29T20:28:31.685Z,63.22
2023-01-29T20:31:37.122Z,62.42
2023-01-29T20:34:42.525Z,62.87
2023-01-29T20:37:47.720Z,63.99
2023-01-29T20:40:53.111Z,64.13
2023-01-29T20:43:58.566Z,64.16
2023-01-29T20:47:04.142Z,63.76
2023-01-29T20:50:11.572Z,63.46
2023-01-29T20:53:17.039Z,63.00
2023-01-29T20:56:32.230Z,62.80
2023-01-29T20:59:42.291Z,62.82
2023-01-29T21:02:47.809Z,62.91
2023-01-29T21:05:54.393Z,62.74
2023-01-29T21:08:59.682Z,62.47
2023-01-29T21:12:05.720Z,62.88
2023-01-29T21:15:12.040Z,63.24
2023-01-29T21:18:17.348Z,63.27
2023-01-29T21:21:22.682Z,63.03
2023-01-29T21:24:28.030Z,62.71
2023-01-29T21:27:33.365Z,62.37
2023-01-29T21:30:39.228Z,62.55
2023-01-29T21:33:44.607Z,62.62
2023-01-29T21:36:49.861Z,63.52
2023-01-29T21:39:55.060Z,63.81
2023-01-29T21:43:16.053Z,63.77
2023-01-29T21:46:21.342Z,63.12
2023-01-29T21:49:27.179Z,64.43
2023-01-29T21:52:32.475Z,63.40
2023-01-29T21:55:37.727Z,63.54
2023-01-29T21:58:43.218Z,63.00
2023-01-29T22:01:48.431Z,63.74
2023-01-29T22:05:05.282Z,64.05
2023-01-29T22:08:17.613Z,64.04
2023-01-29T22:11:23.274Z,63.65
2023-01-29T22:14:28.547Z,63.44
2023-01-29T22:17:33.967Z,63.10
2023-01-29T22:20:39.199Z,63.30
2023-01-29T22:23:45.297Z,62.56
2023-01-29T22:26:50.558Z,62.87
2023-01-29T22:29:55.931Z,62.34
2023-01-29T22:33:01.758Z,62.81
2023-01-29T22:36:08.146Z,62.58
2023-01-29T22:39:13.879Z,62.79
2023-01-29T22:42:21.121Z,63.80
2023-01-29T22:45:27.133Z,64.08
2023-01-29T22:48:32.462Z,64.09
2023-01-29T22:51:38.268Z,63.14
2023-01-29T22:54:43.830Z,62.37
2023-01-29T22:57:50.801Z,62.00
2023-01-29T23:00:56.160Z,62.05
2023-01-29T23:04:02.235Z,61.79
2023-01-29T23:07:07.544Z,62.08
2023-01-29T23:10:16.571Z,61.46
2023-01-29T23:13:22.167Z,62.12
2023-01-29T23:16:29.240Z,61.78
2023-01-29T23:19:34.669Z,62.25
2023-01-29T23:22:39.985Z,62.18
2023-01-29T23:26:03.174Z,61.82
2023-01-29T23:29:08.479Z,61.28
2023-01-29T23:32:15.028Z,61.80
2023-01-29T23:35:20.276Z,61.02
2023-01-29T23:38:25.667Z,61.08
2023-01-29T23:41:30.904Z,60.80
2023-01-29T23:44:36.740Z,61.28
2023-01-29T23:47:42.285Z,61.05
2023-01-29T23:50:47.901Z,61.69
2023-01-29T23:53:53.153Z,61.42
2023-01-29T23:56:58.505Z,61.34
